Terminal Aerodrome Forecast
Issued by NWS Twin Cities, MN

Home | Current Version | Previous Version | Graphics & Text | Print | Product List | Glossary On
Versions: 1 2 3 4 5 6 7 8 9 10 11 12 13 14 15 16 17 18 19 20 21 22
000
FTUS43 KMPX 301100
TAFEAU
TAF
KEAU 301139Z 3012/0112 08007KT P6SM OVC010
     FM301600 10008KT P6SM BKN014
     FM301800 11009KT P6SM SCT020 SCT250
     FM302200 12007KT P6SM SCT030 BKN250
     FM010600 13008KT P6SM VCSH SCT015 OVC050
     FM010900 13010KT 6SM BR VCSH BKN010 OVC035=

USA.gov is the U.S. government's official web portal to all federal, state and local government web resources and services.